Time;durP1;ratioP1;P1;durP2;ratioP2;P2;SDS_P1;SDS_P2;PMS_P1;PMS_P2;Temp;Humidity;BMP_temperature;BMP_pressure;BME280_temperature;BME280_humidity;BME280_pressure;Samples;Min_cycle;Max_cycle;Signal;HPM_P1;HPM_P2
2021/12/21 00:00:20;;;;;;;47.93;30.43;;;2.00;1.00;;;;;;5069645;28;20209;-73
2021/12/21 00:02:50;;;;;;;38.33;26.37;;;2.00;1.00;;;;;;5070484;28;20198;-73
2021/12/21 00:05:20;;;;;;;43.13;28.53;;;2.00;1.00;;;;;;5070167;28;20256;-73
2021/12/21 00:07:50;;;;;;;38.33;27.20;;;2.00;1.00;;;;;;5070443;28;20238;-73
2021/12/21 00:10:18;;;;;;;37.53;27.33;;;1.90;1.00;;;;;;5070052;28;20266;-72
2021/12/21 00:13:01;;;;;;;41.93;26.13;;;1.90;1.00;;;;;;5070302;28;20235;-73
2021/12/21 00:15:40;;;;;;;32.50;24.40;;;1.90;1.00;;;;;;5069638;28;20217;-72
2021/12/21 00:18:18;;;;;;;34.23;25.33;;;2.00;1.00;;;;;;5070312;28;20201;-72
2021/12/21 00:20:54;;;;;;;37.37;26.33;;;2.00;1.00;;;;;;5070341;28;20729;-73
2021/12/21 00:23:33;;;;;;;44.00;29.50;;;2.10;1.00;;;;;;5069932;28;20259;-73
2021/12/21 00:26:02;;;;;;;40.73;27.00;;;2.00;1.00;;;;;;5070128;28;20236;-73
2021/12/21 00:28:34;;;;;;;39.37;27.23;;;2.10;1.00;;;;;;5072148;28;20613;-73
2021/12/21 00:31:00;;;;;;;44.00;29.43;;;2.10;1.00;;;;;;5073867;28;20202;-73
2021/12/21 00:33:27;;;;;;;36.03;27.17;;;2.00;1.00;;;;;;5073471;28;20202;-73
2021/12/21 00:35:56;;;;;;;49.60;29.47;;;1.90;1.00;;;;;;5073800;28;20214;-73
2021/12/21 00:38:23;;;;;;;44.13;29.77;;;1.90;1.00;;;;;;5073481;28;20275;-73
2021/12/21 00:40:50;;;;;;;61.37;34.23;;;1.90;1.00;;;;;;5073891;28;20206;-73
2021/12/21 00:43:17;;;;;;;40.93;27.70;;;1.90;1.00;;;;;;5073166;28;20213;-74
2021/12/21 00:45:44;;;;;;;37.73;27.23;;;1.90;1.00;;;;;;5073630;28;20202;-74
2021/12/21 00:48:11;;;;;;;37.30;27.60;;;1.90;1.00;;;;;;5074072;28;20206;-75
2021/12/21 00:50:38;;;;;;;41.20;28.80;;;2.00;1.00;;;;;;5073285;28;20206;-72
2021/12/21 00:53:07;;;;;;;56.10;31.93;;;2.30;1.00;;;;;;5073753;28;20210;-74
2021/12/21 00:55:34;;;;;;;60.87;33.63;;;2.40;1.00;;;;;;5073404;28;20289;-75
2021/12/21 00:58:01;;;;;;;43.97;32.20;;;2.40;1.00;;;;;;5073078;28;20232;-74
2021/12/21 01:00:28;;;;;;;51.90;32.27;;;2.30;1.00;;;;;;5072961;28;20206;-74
2021/12/21 01:02:58;;;;;;;55.13;36.13;;;2.30;1.00;;;;;;5073052;28;20622;-74
2021/12/21 01:05:31;;;;;;;60.03;35.37;;;2.40;1.00;;;;;;5073162;28;20202;-74
2021/12/21 01:08:01;;;;;;;68.10;36.87;;;2.50;1.00;;;;;;5073099;28;20705;-74
2021/12/21 01:10:53;;;;;;;53.80;32.37;;;2.30;1.00;;;;;;5072825;28;20255;-74
2021/12/21 01:16:17;;;;;;;54.37;32.93;;;2.50;1.00;;;;;;5070476;28;20210;-73
2021/12/21 01:19:00;;;;;;;54.67;36.17;;;2.60;1.00;;;;;;5073435;28;20206;-73
2021/12/21 01:21:31;;;;;;;61.47;35.80;;;2.60;1.00;;;;;;5072668;28;20307;-73
2021/12/21 01:24:12;;;;;;;52.30;34.17;;;2.30;1.00;;;;;;5073034;28;20233;-74
2021/12/21 01:26:52;;;;;;;43.73;31.00;;;2.20;1.00;;;;;;5072449;28;20287;-73
2021/12/21 01:29:27;;;;;;;41.67;27.00;;;2.00;1.00;;;;;;5072614;28;20213;-73
2021/12/21 01:32:01;;;;;;;42.27;27.97;;;1.90;1.00;;;;;;5072721;28;20292;-75
2021/12/21 01:34:40;;;;;;;35.70;27.43;;;1.80;1.00;;;;;;5072274;28;20205;-74
2021/12/21 01:37:15;;;;;;;36.80;25.37;;;1.70;1.00;;;;;;5072732;28;20205;-74
2021/12/21 01:42:41;;;;;;;38.23;25.60;;;1.80;1.00;;;;;;5072216;28;20189;-73
2021/12/21 01:50:38;;;;;;;44.37;26.10;;;1.50;1.00;;;;;;5072021;28;20335;-73
2021/12/21 01:53:05;;;;;;;37.60;26.63;;;1.40;1.00;;;;;;5072375;28;20263;-73
2021/12/21 01:55:32;;;;;;;37.60;25.90;;;1.50;1.00;;;;;;5072073;28;20252;-73
2021/12/21 01:58:00;;;;;;;46.40;29.20;;;1.40;1.00;;;;;;5072385;28;20242;-73
2021/12/21 02:00:29;;;;;;;41.20;25.97;;;1.30;1.00;;;;;;5072246;28;20526;-73
2021/12/21 02:02:56;;;;;;;37.13;25.00;;;1.30;1.00;;;;;;5072154;28;20202;-72
2021/12/21 02:05:23;;;;;;;40.20;27.87;;;1.40;13.00;;;;;;5070756;28;20260;-72
2021/12/21 02:07:50;;;;;;;54.17;35.77;;;1.50;21.60;;;;;;5071991;28;20287;-73
2021/12/21 02:10:17;;;;;;;49.80;28.83;;;1.50;22.60;;;;;;5071410;28;20203;-72
2021/12/21 02:12:44;;;;;;;53.03;28.97;;;1.70;99.90;;;;;;5072173;28;20272;-72
2021/12/21 02:15:13;;;;;;;60.43;32.33;;;1.90;99.90;;;;;;5072310;28;20203;-73
2021/12/21 02:20:39;;;;;;;53.13;27.53;;;1.80;99.90;;;;;;5071501;28;20300;-73
2021/12/21 02:23:10;;;;;;;40.67;26.00;;;2.00;99.90;;;;;;5071817;28;20206;-73
2021/12/21 02:25:56;;;;;;;55.17;29.87;;;2.20;1.00;;;;;;5071037;28;20252;-73
2021/12/21 02:28:47;;;;;;;51.17;30.03;;;2.20;1.00;;;;;;5071086;28;20696;-73
2021/12/21 02:31:16;;;;;;;44.27;26.80;;;2.20;99.90;;;;;;5071728;28;20305;-72
2021/12/21 02:33:45;;;;;;;56.87;29.00;;;2.40;1.00;;;;;;5071886;28;20202;-73
2021/12/21 02:36:14;;;;;;;52.00;27.17;;;2.40;1.00;;;;;;5071939;28;20668;-75
2021/12/21 02:38:41;;;;;;;47.27;28.67;;;2.50;1.00;;;;;;5071379;28;20202;-74
2021/12/21 02:41:08;;;;;;;46.47;28.37;;;2.50;1.00;;;;;;5071297;28;20711;-75
2021/12/21 02:43:38;;;;;;;62.73;31.53;;;2.50;1.00;;;;;;5071210;28;20260;-73
2021/12/21 02:46:06;;;;;;;46.00;29.90;;;2.40;99.90;;;;;;5071482;28;20253;-73
2021/12/21 02:48:33;;;;;;;50.37;28.03;;;2.60;99.90;;;;;;5071076;28;20296;-75
2021/12/21 02:51:01;;;;;;;43.43;27.43;;;2.70;99.90;;;;;;5071280;28;20202;-75
2021/12/21 02:53:29;;;;;;;45.63;29.60;;;2.70;99.90;;;;;;5070762;28;20666;-75
2021/12/21 02:55:56;;;;;;;80.17;35.13;;;2.70;99.90;;;;;;5071495;28;20205;-75
2021/12/21 02:58:23;;;;;;;56.43;30.43;;;2.40;99.90;;;;;;5070637;28;20866;-75
2021/12/21 03:00:53;;;;;;;45.27;30.80;;;2.10;99.90;;;;;;5071181;28;20248;-75
2021/12/21 03:03:20;;;;;;;61.67;32.53;;;2.20;99.90;;;;;;5070731;28;20252;-74
2021/12/21 03:05:51;;;;;;;49.27;30.10;;;2.20;99.90;;;;;;5071406;28;20213;-72
2021/12/21 03:08:21;;;;;;;49.87;27.63;;;2.20;1.00;;;;;;5070279;28;20701;-72
2021/12/21 03:11:04;;;;;;;51.10;30.90;;;2.40;1.00;;;;;;5070690;28;20201;-78
2021/12/21 03:16:16;;;;;;;52.30;29.37;;;2.50;1.00;;;;;;5070621;28;20274;-77
2021/12/21 03:18:43;;;;;;;41.37;26.67;;;2.40;1.00;;;;;;5071498;28;20202;-78
2021/12/21 03:21:10;;;;;;;43.87;28.30;;;2.40;1.00;;;;;;5071186;28;20197;-78
2021/12/21 03:23:39;;;;;;;36.53;26.13;;;2.40;1.00;;;;;;5070543;28;20202;-78
2021/12/21 03:26:07;;;;;;;47.97;28.27;;;2.50;99.90;;;;;;5070981;28;20206;-78
2021/12/21 03:28:34;;;;;;;45.47;28.13;;;2.50;99.90;;;;;;5070430;28;20242;-77
2021/12/21 03:31:02;;;;;;;40.20;26.13;;;2.40;99.90;;;;;;5071148;28;20260;-78
2021/12/21 03:33:29;;;;;;;55.30;28.17;;;2.40;99.90;;;;;;5070445;28;20670;-78
2021/12/21 03:35:56;;;;;;;55.33;31.20;;;2.30;49.30;;;;;;5071021;28;20206;-77
2021/12/21 03:38:23;;;;;;;43.63;25.50;;;2.20;51.60;;;;;;5070373;28;20271;-78
2021/12/21 03:40:50;;;;;;;49.03;29.00;;;2.30;99.90;;;;;;5070935;28;20233;-78
2021/12/21 03:43:18;;;;;;;48.87;29.07;;;2.30;99.90;;;;;;5070438;28;20206;-78
2021/12/21 03:45:55;;;;;;;36.13;25.83;;;2.40;99.90;;;;;;5070900;28;20209;-76
2021/12/21 03:48:22;;;;;;;34.43;23.37;;;2.30;99.90;;;;;;5070340;28;20263;-77
2021/12/21 03:50:49;;;;;;;36.60;25.10;;;2.30;75.70;;;;;;5070730;28;20255;-77
2021/12/21 03:53:17;;;;;;;34.77;25.50;;;2.50;1.00;;;;;;5070387;28;20198;-77
2021/12/21 03:55:44;;;;;;;41.27;24.57;;;2.50;1.00;;;;;;5070914;28;20202;-77
2021/12/21 03:58:11;;;;;;;53.57;27.07;;;2.10;1.00;;;;;;5070975;28;20624;-78
2021/12/21 04:00:40;;;;;;;32.80;22.63;;;2.00;1.00;;;;;;5070370;28;20198;-80
2021/12/21 04:03:07;;;;;;;39.43;23.50;;;1.90;1.00;;;;;;5072545;28;20206;-81
2021/12/21 04:05:34;;;;;;;45.27;27.47;;;1.80;1.00;;;;;;5074213;28;20754;-80
2021/12/21 04:08:03;;;;;;;44.23;26.77;;;1.70;80.00;;;;;;5074226;28;20299;-79
2021/12/21 04:10:30;;;;;;;56.27;32.17;;;1.80;99.90;;;;;;5074441;28;20209;-81
2021/12/21 04:12:57;;;;;;;58.83;31.40;;;1.60;99.90;;;;;;5074609;28;20198;-77
2021/12/21 04:15:28;;;;;;;51.20;30.80;;;1.50;99.90;;;;;;5074187;28;20258;-77
2021/12/21 04:17:56;;;;;;;46.47;31.07;;;1.20;99.90;;;;;;5074359;28;20239;-77
2021/12/21 04:20:23;;;;;;;41.70;27.50;;;1.10;99.90;;;;;;5073770;28;20214;-77
2021/12/21 04:22:50;;;;;;;44.57;24.97;;;1.00;99.90;;;;;;5074652;28;20256;-78
2021/12/21 04:25:17;;;;;;;38.70;23.27;;;1.00;99.90;;;;;;5073923;28;20198;-76
2021/12/21 04:27:44;;;;;;;36.87;26.30;;;0.90;99.90;;;;;;5074348;28;20229;-76
2021/12/21 04:30:11;;;;;;;31.57;22.43;;;0.80;99.90;;;;;;5074439;28;20252;-77
2021/12/21 04:32:38;;;;;;;33.67;21.53;;;0.70;99.90;;;;;;5073811;28;20256;-77
2021/12/21 04:35:07;;;;;;;35.40;22.33;;;0.70;99.90;;;;;;5073801;28;20202;-77
2021/12/21 04:37:41;;;;;;;27.97;20.27;;;0.70;99.90;;;;;;5073578;28;20743;-77
2021/12/21 04:40:15;;;;;;;31.90;21.47;;;0.70;99.90;;;;;;5074042;28;20206;-77
2021/12/21 04:42:42;;;;;;;28.43;20.43;;;0.70;99.90;;;;;;5074518;28;20206;-77
2021/12/21 04:45:09;;;;;;;25.77;19.53;;;0.60;99.90;;;;;;5074069;28;20202;-77
2021/12/21 04:47:36;;;;;;;23.90;17.63;;;0.60;99.90;;;;;;5073499;28;20229;-78
2021/12/21 04:50:04;;;;;;;27.90;17.33;;;0.60;99.90;;;;;;5073377;28;20255;-75
2021/12/21 04:52:32;;;;;;;29.03;18.33;;;0.60;93.00;;;;;;5073479;28;20198;-77
2021/12/21 04:54:59;;;;;;;31.07;22.50;;;0.60;1.00;;;;;;5073697;28;20670;-77
2021/12/21 04:57:26;;;;;;;30.13;19.40;;;0.70;1.00;;;;;;5073323;28;20629;-76
2021/12/21 04:59:53;;;;;;;27.47;17.40;;;0.80;1.00;;;;;;5073574;28;20217;-76
2021/12/21 05:02:21;;;;;;;28.50;18.20;;;0.60;1.00;;;;;;5072885;28;20588;-76
2021/12/21 05:04:48;;;;;;;23.80;16.47;;;0.50;7.50;;;;;;5073170;28;20248;-76
2021/12/21 05:07:22;;;;;;;24.03;16.93;;;0.50;99.90;;;;;;5073298;28;20768;-75
2021/12/21 05:09:56;;;;;;;25.37;18.77;;;0.50;99.90;;;;;;5073310;28;20568;-75
2021/12/21 05:12:23;;;;;;;25.50;17.70;;;0.50;99.90;;;;;;5073020;28;20292;-75
2021/12/21 05:14:50;;;;;;;23.97;16.00;;;0.50;99.90;;;;;;5071693;28;20203;-76
2021/12/21 05:17:18;;;;;;;25.50;16.70;;;0.50;99.90;;;;;;5072808;28;20206;-75
2021/12/21 05:19:45;;;;;;;23.23;16.17;;;0.50;99.90;;;;;;5072941;28;20210;-76
2021/12/21 05:22:12;;;;;;;25.27;15.77;;;0.40;99.90;;;;;;5073394;28;20251;-74
2021/12/21 05:24:39;;;;;;;22.93;16.40;;;0.40;99.90;;;;;;5073067;28;20216;-74
2021/12/21 05:27:09;;;;;;;23.07;16.27;;;0.50;99.90;;;;;;5072956;28;20209;-74
2021/12/21 05:29:36;;;;;;;19.50;14.57;;;0.50;99.90;;;;;;5072898;28;20731;-74
2021/12/21 05:32:04;;;;;;;22.70;15.13;;;0.60;99.90;;;;;;5072789;28;20207;-75
2021/12/21 05:34:33;;;;;;;21.20;15.63;;;0.70;99.90;;;;;;5072402;28;20210;-74
2021/12/21 05:37:05;;;;;;;21.53;12.67;;;0.70;99.90;;;;;;5072550;28;20203;-74
2021/12/21 05:39:40;;;;;;;21.13;12.50;;;0.70;99.90;;;;;;5072280;28;20199;-74
2021/12/21 05:42:09;;;;;;;21.80;11.87;;;0.80;99.90;;;;;;5072796;28;20274;-74
2021/12/21 05:44:36;;;;;;;21.00;12.47;;;0.80;99.90;;;;;;5072371;28;20210;-76
2021/12/21 05:47:03;;;;;;;16.67;12.57;;;0.80;99.90;;;;;;5072756;28;20611;-73
2021/12/21 05:49:33;;;;;;;16.43;10.47;;;0.80;99.90;;;;;;5071920;28;20202;-73
2021/12/21 05:52:00;;;;;;;19.83;12.00;;;0.80;99.90;;;;;;5072404;28;20207;-73
2021/12/21 05:54:27;;;;;;;19.83;11.77;;;0.90;99.90;;;;;;5071910;28;20210;-73
2021/12/21 05:56:54;;;;;;;18.10;10.00;;;0.90;99.90;;;;;;5072189;28;20271;-78
2021/12/21 05:59:22;;;;;;;15.63;11.07;;;0.90;99.90;;;;;;5071881;28;20627;-78
2021/12/21 06:01:49;;;;;;;14.07;9.27;;;0.90;99.90;;;;;;5071953;28;20202;-76
2021/12/21 06:04:16;;;;;;;16.67;9.83;;;1.00;99.90;;;;;;5072092;28;20255;-74
2021/12/21 06:06:43;;;;;;;13.40;8.97;;;0.90;99.90;;;;;;5072510;28;20198;-77
2021/12/21 06:09:12;;;;;;;11.07;7.90;;;0.90;99.90;;;;;;5072735;28;20238;-77
2021/12/21 06:11:45;;;;;;;13.87;8.30;;;0.90;99.90;;;;;;5072462;28;20234;-81
2021/12/21 06:14:39;;;;;;;9.03;6.17;;;0.90;99.90;;;;;;5072655;28;20236;-80
2021/12/21 06:22:55;;;;;;;12.43;7.57;;;0.90;99.90;;;;;;5071995;28;20591;-79
2021/12/21 06:25:35;;;;;;;14.20;8.93;;;1.00;99.90;;;;;;5071553;28;20248;-79
2021/12/21 06:28:02;;;;;;;10.47;6.40;;;0.90;99.90;;;;;;5072443;28;20326;-80
2021/12/21 06:30:30;;;;;;;10.53;6.97;;;0.90;99.90;;;;;;5072024;28;20635;-80
2021/12/21 06:32:59;;;;;;;9.60;6.97;;;0.90;99.90;;;;;;5071888;28;20723;-80
2021/12/21 06:35:26;;;;;;;10.17;7.80;;;0.90;99.90;;;;;;5071511;28;20207;-78
2021/12/21 06:37:53;;;;;;;11.80;6.77;;;0.90;99.90;;;;;;5070102;28;20625;-79
2021/12/21 06:40:21;;;;;;;11.43;7.10;;;1.00;99.90;;;;;;5069031;28;20263;-79
2021/12/21 06:42:50;;;;;;;11.63;6.43;;;1.10;99.90;;;;;;5071478;28;20248;-75
2021/12/21 06:45:28;;;;;;;11.53;7.83;;;1.10;99.90;;;;;;5063920;28;20210;-76
2021/12/21 06:53:27;;;;;;;8.27;5.67;;;1.20;99.90;;;;;;5051104;28;20210;-78
2021/12/21 06:55:54;;;;;;;8.60;5.80;;;1.20;99.90;;;;;;5052055;28;20260;-77
2021/12/21 06:58:21;;;;;;;10.43;5.80;;;1.20;99.90;;;;;;5070593;28;20580;-78
2021/12/21 07:00:50;;;;;;;7.50;5.10;;;1.20;99.90;;;;;;5071036;28;20255;-77
2021/12/21 07:03:18;;;;;;;13.53;8.63;;;1.20;99.90;;;;;;5070913;28;20202;-75
2021/12/21 07:05:47;;;;;;;9.23;6.23;;;1.30;99.90;;;;;;5071169;28;20346;-75
2021/12/21 07:08:18;;;;;;;10.40;6.33;;;1.40;1.00;;;;;;5071352;28;20248;-73
2021/12/21 07:10:54;;;;;;;9.87;6.77;;;1.30;99.90;;;;;;5070802;28;20731;-76
2021/12/21 07:18:50;;;;;;;10.33;6.30;;;1.50;99.90;;;;;;5070919;28;20597;-76
2021/12/21 07:21:19;;;;;;;12.30;6.50;;;1.50;99.90;;;;;;5070762;28;20199;-76
2021/12/21 07:23:46;;;;;;;12.20;7.60;;;1.60;99.90;;;;;;5070934;28;20264;-77
2021/12/21 07:26:13;;;;;;;10.37;6.53;;;1.60;99.90;;;;;;5071217;28;20202;-77
2021/12/21 07:28:40;;;;;;;7.97;6.10;;;1.60;99.90;;;;;;5070749;28;20234;-77
2021/12/21 07:31:07;;;;;;;11.23;5.37;;;1.70;99.90;;;;;;5070691;28;20201;-77
2021/12/21 07:33:35;;;;;;;7.23;5.83;;;1.80;99.90;;;;;;5070512;28;20582;-76
2021/12/21 07:36:03;;;;;;;10.20;6.80;;;1.80;99.90;;;;;;5071048;28;20666;-76
2021/12/21 07:38:33;;;;;;;8.40;5.97;;;1.80;99.90;;;;;;5069329;28;20554;-77
2021/12/21 07:41:00;;;;;;;7.70;6.00;;;1.80;99.90;;;;;;5070854;28;20654;-78
2021/12/21 07:43:28;;;;;;;12.80;7.40;;;1.90;99.90;;;;;;5068782;28;20225;-76
2021/12/21 07:45:55;;;;;;;8.17;5.63;;;2.00;99.90;;;;;;5070773;28;20217;-76
2021/12/21 07:48:22;;;;;;;11.60;7.30;;;2.00;99.90;;;;;;5070451;28;20308;-74
2021/12/21 07:50:51;;;;;;;8.23;6.27;;;2.00;99.90;;;;;;5070641;28;20331;-74
2021/12/21 07:53:19;;;;;;;9.73;6.43;;;2.10;99.90;;;;;;5070465;28;20255;-74
2021/12/21 07:55:48;;;;;;;8.00;5.17;;;2.10;99.90;;;;;;5070848;28;20255;-74
2021/12/21 07:58:16;;;;;;;9.97;6.47;;;2.30;99.90;;;;;;5070499;28;20202;-72
2021/12/21 08:00:43;;;;;;;12.10;5.90;;;2.40;99.90;;;;;;5071039;28;20198;-72
2021/12/21 08:03:15;;;;;;;10.23;5.80;;;2.40;99.90;;;;;;5070868;28;20672;-73
2021/12/21 08:05:44;;;;;;;8.53;6.60;;;2.50;99.90;;;;;;5070991;28;20204;-72
2021/12/21 08:08:13;;;;;;;14.97;7.57;;;2.60;99.90;;;;;;5070355;28;20232;-73
2021/12/21 08:10:47;;;;;;;12.27;7.23;;;2.70;99.90;;;;;;5070357;28;20235;-73
2021/12/21 08:13:16;;;;;;;10.83;6.17;;;2.80;65.80;;;;;;5070216;28;20252;-73
2021/12/21 08:15:43;;;;;;;13.87;7.37;;;2.80;1.00;;;;;;5070701;28;20202;-75
2021/12/21 08:18:10;;;;;;;10.30;6.57;;;2.90;1.00;;;;;;5070679;28;20301;-77
2021/12/21 08:20:38;;;;;;;11.50;7.03;;;2.80;1.00;;;;;;5070033;28;20210;-75
2021/12/21 08:23:06;;;;;;;10.83;8.17;;;2.90;1.00;;;;;;5070426;28;20210;-76
2021/12/21 08:25:33;;;;;;;12.60;8.53;;;3.00;1.00;;;;;;5069761;28;20696;-76
2021/12/21 08:28:01;;;;;;;11.50;7.97;;;3.00;1.00;;;;;;5070035;28;20252;-74
2021/12/21 08:30:30;;;;;;;10.87;8.13;;;3.00;1.00;;;;;;5069404;28;20268;-75
2021/12/21 08:32:57;;;;;;;15.47;9.17;;;3.10;1.00;;;;;;5070506;28;20207;-73
2021/12/21 08:35:25;;;;;;;19.30;9.53;;;3.10;5.30;;;;;;5069252;28;20203;-75
2021/12/21 08:37:53;;;;;;;14.13;10.60;;;3.20;1.00;;;;;;5070195;28;20202;-75
2021/12/21 08:40:22;;;;;;;15.73;10.17;;;3.30;1.00;;;;;;5065499;28;20670;-76
2021/12/21 08:42:51;;;;;;;14.83;9.83;;;3.50;1.00;;;;;;5052769;28;20689;-75
2021/12/21 08:45:19;;;;;;;17.97;11.33;;;3.40;1.00;;;;;;5056472;28;20211;-75
2021/12/21 08:47:47;;;;;;;19.97;11.30;;;3.50;1.00;;;;;;5068496;28;20206;-75
2021/12/21 08:50:15;;;;;;;21.83;13.87;;;3.70;1.00;;;;;;5073774;28;20261;-75
2021/12/21 08:52:43;;;;;;;18.80;11.43;;;3.60;1.00;;;;;;5074009;28;20275;-75
2021/12/21 08:55:12;;;;;;;17.10;11.03;;;3.70;1.00;;;;;;5073489;28;20209;-75
2021/12/21 08:57:40;;;;;;;22.47;11.63;;;3.80;1.00;;;;;;5073070;28;20217;-75
2021/12/21 09:00:10;;;;;;;20.43;11.13;;;3.80;1.00;;;;;;5073074;28;20308;-75
2021/12/21 09:02:38;;;;;;;27.17;15.00;;;3.80;1.00;;;;;;5072949;28;20755;-75
2021/12/21 09:05:12;;;;;;;24.37;14.10;;;4.00;1.00;;;;;;5067919;28;20242;-76
2021/12/21 09:07:39;;;;;;;20.17;14.17;;;4.00;1.00;;;;;;5071909;28;20258;-71
2021/12/21 09:10:08;;;;;;;21.23;12.93;;;4.10;1.00;;;;;;5070296;28;20279;-72
2021/12/21 09:12:36;;;;;;;21.70;13.40;;;4.30;1.00;;;;;;5067251;28;20202;-74
2021/12/21 09:15:03;;;;;;;23.30;14.40;;;4.20;1.00;;;;;;5067070;28;20204;-75
2021/12/21 09:17:30;;;;;;;22.27;13.97;;;4.30;1.00;;;;;;5071867;28;20210;-75
2021/12/21 09:19:58;;;;;;;24.33;16.90;;;4.40;1.00;;;;;;5061062;28;20211;-75
2021/12/21 09:22:27;;;;;;;23.27;16.63;;;4.60;1.00;;;;;;5058962;28;20556;-75
2021/12/21 09:24:54;;;;;;;23.73;16.43;;;4.70;1.00;;;;;;5066741;28;20211;-75
2021/12/21 09:27:21;;;;;;;21.00;13.97;;;4.70;1.00;;;;;;5069237;28;20285;-75
2021/12/21 09:29:48;;;;;;;22.93;15.07;;;4.60;1.00;;;;;;5069636;28;20237;-73
2021/12/21 09:32:18;;;;;;;23.50;14.27;;;4.70;1.00;;;;;;5054782;28;20211;-73
2021/12/21 09:34:45;;;;;;;23.17;14.43;;;4.80;1.00;;;;;;5071930;28;20206;-74
2021/12/21 09:37:17;;;;;;;26.90;15.90;;;4.70;1.00;;;;;;5071105;28;20218;-76
2021/12/21 09:39:48;;;;;;;21.77;14.37;;;4.90;1.00;;;;;;5072450;28;20271;-75
2021/12/21 09:42:19;;;;;;;21.20;13.17;;;4.90;1.00;;;;;;5072409;28;20639;-74
2021/12/21 09:44:46;;;;;;;21.20;15.53;;;5.20;1.00;;;;;;5072328;28;20206;-74
2021/12/21 09:47:15;;;;;;;18.20;12.63;;;5.30;1.00;;;;;;5072166;28;20218;-75
2021/12/21 09:49:43;;;;;;;20.10;14.30;;;5.50;1.00;;;;;;5072026;28;20279;-73
2021/12/21 09:52:13;;;;;;;19.27;13.13;;;5.70;1.00;;;;;;5072481;28;20639;-73
2021/12/21 09:54:41;;;;;;;19.60;13.07;;;5.80;1.00;;;;;;5059722;28;20623;-73
2021/12/21 09:57:09;;;;;;;18.50;12.67;;;5.80;1.00;;;;;;5072010;28;20566;-74
2021/12/21 09:59:37;;;;;;;16.50;11.87;;;5.60;1.00;;;;;;5064901;28;20252;-74
2021/12/21 10:02:04;;;;;;;17.60;11.43;;;5.60;1.00;;;;;;5071944;28;20206;-71
2021/12/21 10:04:31;;;;;;;17.40;11.00;;;5.40;1.00;;;;;;5069232;28;20202;-76
2021/12/21 10:07:00;;;;;;;18.80;12.47;;;5.80;1.00;;;;;;5070358;28;20203;-76
2021/12/21 10:09:34;;;;;;;18.27;12.27;;;6.50;1.00;;;;;;5055768;28;20242;-78
2021/12/21 10:12:01;;;;;;;19.40;11.93;;;6.70;1.00;;;;;;5070913;28;20297;-77
2021/12/21 10:14:29;;;;;;;14.70;12.63;;;8.20;1.00;;;;;;5071515;28;20206;-77
2021/12/21 10:17:05;;;;;;;13.73;10.37;;;6.90;1.00;;;;;;5071959;28;20214;-77
2021/12/21 10:19:32;;;;;;;14.57;10.47;;;6.70;1.00;;;;;;5071694;28;20292;-77
2021/12/21 10:22:09;;;;;;;13.77;9.93;;;6.90;1.00;;;;;;5071908;28;20198;-77
2021/12/21 10:24:46;;;;;;;16.43;13.03;;;6.50;1.00;;;;;;5070911;28;20267;-78
2021/12/21 10:27:13;;;;;;;18.87;11.50;;;7.00;1.00;;;;;;5071754;28;20568;-77
2021/12/21 10:29:45;;;;;;;18.47;12.17;;;7.40;1.00;;;;;;5071817;28;20651;-77
2021/12/21 10:32:24;;;;;;;16.13;10.30;;;10.00;1.00;;;;;;5071724;28;20206;-78
2021/12/21 10:34:54;;;;;;;14.87;10.10;;;12.80;1.00;;;;;;5071470;28;20665;-77
2021/12/21 10:37:23;;;;;;;13.47;10.00;;;9.50;1.00;;;;;;5071052;28;20712;-77
2021/12/21 10:40:01;;;;;;;16.37;10.93;;;9.40;1.00;;;;;;5069401;28;20575;-77
2021/12/21 10:42:28;;;;;;;17.40;11.40;;;8.80;1.00;;;;;;5070209;28;20209;-77
2021/12/21 10:45:05;;;;;;;17.23;10.73;;;8.30;1.00;;;;;;5071570;28;20206;-78
2021/12/21 10:47:33;;;;;;;14.80;10.73;;;7.20;1.00;;;;;;5071110;28;20205;-78
2021/12/21 10:50:01;;;;;;;12.77;9.97;;;6.60;1.00;;;;;;5071040;28;20234;-78
2021/12/21 10:52:28;;;;;;;17.67;10.73;;;6.70;1.00;;;;;;5070764;28;20730;-77
2021/12/21 10:54:56;;;;;;;14.10;10.53;;;6.90;1.00;;;;;;5071349;28;20210;-77
2021/12/21 10:57:29;;;;;;;17.07;10.60;;;7.10;1.00;;;;;;5070985;28;20202;-77
2021/12/21 10:59:59;;;;;;;17.50;10.70;;;7.00;1.00;;;;;;5071128;28;20217;-77
2021/12/21 11:02:31;;;;;;;15.53;11.57;;;7.20;1.00;;;;;;5070679;28;20206;-77
2021/12/21 11:05:02;;;;;;;18.83;13.30;;;7.30;1.00;;;;;;5071099;28;20666;-77
2021/12/21 11:07:33;;;;;;;19.30;13.10;;;7.30;1.00;;;;;;5070347;28;20635;-77
2021/12/21 11:10:09;;;;;;;16.20;11.33;;;7.20;1.00;;;;;;5070831;28;20238;-77
2021/12/21 11:12:43;;;;;;;17.73;11.80;;;7.30;1.00;;;;;;5070727;28;20569;-77
2021/12/21 11:15:11;;;;;;;18.83;10.43;;;7.50;1.00;;;;;;5071022;28;20256;-78
2021/12/21 11:17:40;;;;;;;15.03;9.17;;;7.40;1.00;;;;;;5070884;28;20213;-78
2021/12/21 11:20:10;;;;;;;12.90;9.77;;;7.40;1.00;;;;;;5070885;28;20263;-77
2021/12/21 11:22:40;;;;;;;12.73;9.00;;;7.40;1.00;;;;;;5070474;28;20206;-77
2021/12/21 11:25:08;;;;;;;15.07;10.13;;;7.40;1.00;;;;;;5070929;28;20206;-78
2021/12/21 11:27:37;;;;;;;15.27;9.60;;;7.60;1.00;;;;;;5070485;28;20271;-82
2021/12/21 11:30:07;;;;;;;16.87;10.77;;;7.50;1.00;;;;;;5071222;28;20238;-78
2021/12/21 11:32:38;;;;;;;17.03;10.43;;;7.60;1.00;;;;;;5070796;28;20205;-79
2021/12/21 11:37:20;;;;;;;12.50;9.40;;;7.80;1.00;;;;;;5070880;28;20210;-78
2021/12/21 11:37:59;;;;;;;15.30;10.30;;;7.90;1.00;;;;;;5071003;28;20230;-77
2021/12/21 11:40:29;;;;;;;12.13;9.17;;;8.00;1.00;;;;;;5058327;28;20670;-78
2021/12/21 11:43:09;;;;;;;15.97;9.43;;;8.10;1.00;;;;;;5070561;28;20264;-79
2021/12/21 11:45:43;;;;;;;13.07;10.27;;;8.00;1.00;;;;;;5069438;28;20518;-77
2021/12/21 11:48:19;;;;;;;14.37;9.80;;;7.90;1.00;;;;;;5060073;28;20211;-76
2021/12/21 11:50:50;;;;;;;14.27;9.87;;;8.00;1.00;;;;;;5064592;28;20222;-76
2021/12/21 11:53:19;;;;;;;12.07;8.00;;;8.00;1.00;;;;;;5069168;28;20206;-77
2021/12/21 11:55:49;;;;;;;14.10;9.10;;;8.10;1.00;;;;;;5069723;28;20202;-76
2021/12/21 11:58:18;;;;;;;13.40;8.10;;;7.90;1.00;;;;;;5069792;28;20210;-77
2021/12/21 12:00:51;;;;;;;12.63;9.37;;;8.10;1.00;;;;;;5070341;28;20252;-77
2021/12/21 12:03:22;;;;;;;15.83;9.20;;;8.20;1.00;;;;;;5068056;28;20723;-76
2021/12/21 12:05:57;;;;;;;16.90;9.53;;;8.30;1.00;;;;;;5056600;28;20203;-78
2021/12/21 12:08:25;;;;;;;13.10;8.63;;;8.30;1.00;;;;;;5049692;28;20206;-77
2021/12/21 12:10:55;;;;;;;13.80;8.57;;;8.30;1.00;;;;;;5065490;28;20285;-76
2021/12/21 12:13:32;;;;;;;12.10;8.30;;;8.50;1.00;;;;;;5063516;28;20213;-76
2021/12/21 12:16:03;;;;;;;13.50;8.53;;;8.50;1.00;;;;;;5070338;28;22952;-77
2021/12/21 12:18:35;;;;;;;12.30;7.33;;;8.70;1.00;;;;;;5056296;28;20272;-76
2021/12/21 12:21:26;;;;;;;13.97;9.80;;;8.80;1.00;;;;;;5069376;28;20210;-77
2021/12/21 12:23:54;;;;;;;12.70;9.10;;;8.60;1.00;;;;;;5063564;28;20204;-76
2021/12/21 12:26:24;;;;;;;13.00;9.07;;;8.70;1.00;;;;;;5072484;28;20662;-76
2021/12/21 12:28:51;;;;;;;14.10;8.80;;;8.80;1.00;;;;;;5070660;28;20279;-77
2021/12/21 12:31:32;;;;;;;11.33;7.10;;;8.90;1.00;;;;;;5068799;28;20242;-76
2021/12/21 12:34:00;;;;;;;12.57;9.07;;;9.00;1.00;;;;;;5070743;28;20214;-76
2021/12/21 12:36:51;;;;;;;13.17;8.37;;;9.10;1.00;;;;;;5073462;28;20202;-77
2021/12/21 12:39:29;;;;;;;12.50;7.87;;;9.10;1.00;;;;;;5070275;28;20206;-77
2021/12/21 12:42:03;;;;;;;10.37;8.10;;;9.10;1.00;;;;;;5053248;28;20207;-77
2021/12/21 12:44:30;;;;;;;9.83;7.03;;;9.10;1.00;;;;;;5053517;28;20207;-76
2021/12/21 12:47:02;;;;;;;10.47;7.13;;;9.30;1.00;;;;;;5053713;28;20203;-77
2021/12/21 12:49:30;;;;;;;10.13;6.93;;;9.30;1.00;;;;;;5053013;28;20207;-77
2021/12/21 12:52:13;;;;;;;12.27;8.17;;;9.20;1.00;;;;;;5053538;28;20237;-78
2021/12/21 12:54:52;;;;;;;11.33;8.23;;;9.20;1.00;;;;;;5053692;28;20199;-78
2021/12/21 12:57:35;;;;;;;9.20;7.23;;;9.30;1.00;;;;;;5053604;28;20634;-78
2021/12/21 13:00:13;;;;;;;8.37;6.53;;;9.40;1.00;;;;;;5073392;28;20213;-77
2021/12/21 13:02:51;;;;;;;9.60;7.47;;;9.30;1.00;;;;;;5072901;28;20632;-76
2021/12/21 13:05:18;;;;;;;8.43;6.17;;;9.30;1.00;;;;;;5073250;28;20232;-76
2021/12/21 13:07:46;;;;;;;14.30;7.97;;;9.30;1.00;;;;;;5073443;28;20747;-76
2021/12/21 13:10:13;;;;;;;13.23;8.13;;;9.30;1.00;;;;;;5073807;28;20234;-77
2021/12/21 13:12:40;;;;;;;10.27;8.03;;;9.30;1.00;;;;;;5071147;28;20623;-76
2021/12/21 13:15:09;;;;;;;10.27;7.57;;;9.40;1.00;;;;;;5073321;28;20206;-77
2021/12/21 13:17:41;;;;;;;8.97;6.97;;;9.20;1.00;;;;;;5072739;28;20653;-76
2021/12/21 13:20:09;;;;;;;10.00;6.53;;;9.10;1.00;;;;;;5073150;28;20238;-76
2021/12/21 13:22:36;;;;;;;12.27;8.03;;;9.10;1.00;;;;;;5071645;28;20736;-77
2021/12/21 13:25:05;;;;;;;12.07;8.40;;;9.20;1.00;;;;;;5073324;28;20285;-76
2021/12/21 13:27:34;;;;;;;8.10;6.03;;;9.20;1.00;;;;;;5072583;28;20661;-76
2021/12/21 13:30:05;;;;;;;10.87;6.07;;;9.10;1.00;;;;;;5072944;28;20651;-76
2021/12/21 13:32:34;;;;;;;13.37;8.67;;;9.20;1.00;;;;;;5072388;28;20294;-76
2021/12/21 13:35:02;;;;;;;11.30;7.97;;;9.30;1.00;;;;;;5062349;28;20638;-76